Time;durP1;ratioP1;P1;durP2;ratioP2;P2;SDS_P1;SDS_P2;PMS_P1;PMS_P2;Temp;Humidity;BMP_temperature;BMP_pressure;BME280_temperature;BME280_humidity;BME280_pressure;Samples;Min_cycle;Max_cycle;Signal;HPM_P1;HPM_P2
2024/02/09 00:00:40;;;;;;;51.15;23.95;;;;;;;-0.38;92.19;98846.36;1788995;80;27278;-39
2024/02/09 00:03:10;;;;;;;45.98;22.67;;;;;;;-0.40;92.46;98834.43;1788978;80;25660;-41
2024/02/09 00:05:38;;;;;;;46.05;20.85;;;;;;;-0.40;92.87;98843.73;1757788;81;25613;-41
2024/02/09 00:08:07;;;;;;;48.25;24.27;;;;;;;-0.42;92.80;98843.21;1747091;82;25656;-39
2024/02/09 00:10:37;;;;;;;43.87;23.00;;;;;;;-0.42;92.98;98849.31;1770130;81;25695;-41
2024/02/09 00:13:12;;;;;;;40.33;21.40;;;;;;;-0.43;93.09;98845.59;1770151;81;28018;-40
2024/02/09 00:15:36;;;;;;;43.40;21.68;;;;;;;-0.44;93.38;98839.50;1769066;81;25852;-40
2024/02/09 00:18:03;;;;;;;45.03;22.32;;;;;;;-0.44;93.37;98838.17;1770047;81;25612;-39
2024/02/09 00:20:31;;;;;;;51.02;22.52;;;;;;;-0.45;93.63;98833.91;1770051;81;25932;-40
2024/02/09 00:22:58;;;;;;;45.00;20.77;;;;;;;-0.45;93.71;98827.27;1770014;81;25600;-40
2024/02/09 00:25:26;;;;;;;46.70;22.00;;;;;;;-0.44;93.79;98826.75;1770074;81;27993;-40
2024/02/09 00:27:54;;;;;;;44.77;22.07;;;;;;;-0.44;94.05;98815.58;1770058;81;25520;-40
2024/02/09 00:30:20;;;;;;;46.18;22.02;;;;;;;-0.43;94.30;98819.03;1770015;81;25443;-39
2024/02/09 00:32:51;;;;;;;47.35;22.73;;;;;;;-0.42;94.29;98826.73;1769923;81;25434;-40
2024/02/09 00:35:18;;;;;;;45.67;20.72;;;;;;;-0.38;94.28;98836.27;1764963;81;25597;-41
2024/02/09 00:37:45;;;;;;;42.08;21.80;;;;;;;-0.36;94.38;98834.14;1788995;80;27661;-39
2024/02/09 00:40:13;;;;;;;46.37;22.67;;;;;;;-0.33;94.44;98837.58;1788797;79;25551;-39
2024/02/09 00:42:43;;;;;;;42.08;21.55;;;;;;;-0.31;94.40;98836.77;1757703;81;25671;-39
2024/02/09 00:45:15;;;;;;;46.70;22.05;;;;;;;-0.27;94.46;98831.73;1788932;80;25481;-40
2024/02/09 00:47:43;;;;;;;40.35;21.00;;;;;;;-0.23;94.41;98836.75;1757790;81;25654;-39
2024/02/09 00:50:13;;;;;;;48.78;22.35;;;;;;;-0.21;94.39;98832.73;1789146;80;27319;-39
2024/02/09 00:52:41;;;;;;;45.25;21.30;;;;;;;-0.18;94.39;98836.73;1783944;80;25836;-39
2024/02/09 00:55:11;;;;;;;45.05;22.37;;;;;;;-0.13;94.42;98837.25;1783990;80;25611;-39
2024/02/09 00:57:38;;;;;;;43.78;21.07;;;;;;;-0.10;94.53;98834.02;1783958;80;26186;-39
2024/02/09 01:00:15;;;;;;;45.20;21.48;;;;;;;-0.07;94.61;98842.78;1784057;80;25388;-38
2024/02/09 01:02:45;;;;;;;42.53;21.85;;;;;;;-0.04;94.69;98845.68;1784081;80;28274;-40
2024/02/09 01:05:14;;;;;;;44.40;22.32;;;;;;;-0.01;94.71;98846.47;1783883;80;25585;-39
2024/02/09 01:07:43;;;;;;;42.70;21.60;;;;;;;0.03;94.75;98843.27;1783516;80;25264;-40
2024/02/09 01:10:12;;;;;;;43.40;20.62;;;;;;;0.05;94.76;98833.96;1784211;80;25989;-40
2024/02/09 02:46:45;;;;;;;44.67;22.87;;;;;;;0.25;94.68;98814.94;1747012;82;25472;-39
2024/02/09 03:05:47;;;;;;;37.40;19.85;;;;;;;0.28;94.61;98807.20;1746667;82;27336;-40
2024/02/09 03:08:13;;;;;;;38.08;20.30;;;;;;;0.27;94.55;98808.27;1760593;81;25393;-39
2024/02/09 03:10:39;;;;;;;42.33;21.40;;;;;;;0.27;94.55;98812.80;1746733;82;25577;-39
2024/02/09 03:13:08;;;;;;;43.50;22.95;;;;;;;0.28;94.60;98806.41;1760599;81;25631;-39
2024/02/09 03:15:36;;;;;;;39.38;21.77;;;;;;;0.26;94.60;98810.68;1746885;82;25691;-39
2024/02/09 03:18:07;;;;;;;41.25;20.90;;;;;;;0.24;94.46;98808.02;1760696;81;28295;-39
2024/02/09 03:20:34;;;;;;;38.50;20.27;;;;;;;0.22;94.54;98808.84;1746804;82;25597;-40
2024/02/09 03:23:02;;;;;;;42.27;21.15;;;;;;;0.20;94.55;98809.66;1760893;81;25528;-39
2024/02/09 03:25:31;;;;;;;39.18;20.45;;;;;;;0.19;94.68;98808.88;1746784;82;25936;-39
2024/02/09 03:27:57;;;;;;;46.33;22.02;;;;;;;0.18;94.79;98816.03;1761102;81;25210;-40
2024/02/09 03:30:26;;;;;;;42.00;22.25;;;;;;;0.18;94.82;98819.24;1747282;82;27951;-39
2024/02/09 03:32:54;;;;;;;43.15;21.23;;;;;;;0.18;94.92;98827.22;1760984;81;25578;-40
2024/02/09 03:35:22;;;;;;;43.10;21.77;;;;;;;0.18;95.06;98833.33;1746747;82;25482;-40
2024/02/09 03:37:48;;;;;;;48.40;21.50;;;;;;;0.21;95.09;98830.66;1758111;81;25886;-40
2024/02/09 03:40:19;;;;;;;41.70;21.73;;;;;;;0.21;95.04;98822.69;1750818;81;25657;-39
2024/02/09 03:42:45;;;;;;;42.38;21.17;;;;;;;0.20;94.96;98821.08;1791907;80;27369;-40
2024/02/09 03:45:12;;;;;;;42.48;21.80;;;;;;;0.20;94.88;98819.75;1788745;80;25555;-39
2024/02/09 03:47:40;;;;;;;41.90;22.02;;;;;;;0.18;94.80;98819.24;1789000;80;25391;-38
2024/02/09 03:50:10;;;;;;;38.40;20.82;;;;;;;0.18;94.87;98829.33;1788718;80;25609;-40
2024/02/09 03:52:44;;;;;;;44.40;21.07;;;;;;;0.18;94.89;98828.55;1792204;80;25536;-40
2024/02/09 03:55:15;;;;;;;43.08;23.22;;;;;;;0.16;95.02;98831.48;1791899;80;27865;-42
2024/02/09 03:57:37;;;;;;;41.85;20.45;;;;;;;0.16;95.11;98841.33;1791763;80;25779;-39
2024/02/09 04:00:15;;;;;;;44.65;22.50;;;;;;;0.16;95.25;98836.80;1792167;80;25480;-40
2024/02/09 04:02:40;;;;;;;48.73;21.48;;;;;;;0.17;95.35;98830.94;1791963;80;25622;-40
2024/02/09 04:05:09;;;;;;;46.37;21.62;;;;;;;0.17;95.27;98838.40;1788609;80;25459;-39
2024/02/09 04:07:37;;;;;;;52.10;23.80;;;;;;;0.18;95.28;98843.17;1757944;81;28489;-39
2024/02/09 04:10:12;;;;;;;49.03;23.77;;;;;;;0.18;95.27;98839.19;1789062;80;25526;-40
2024/02/09 04:12:39;;;;;;;44.58;23.52;;;;;;;0.15;95.22;98830.42;1788953;80;25550;-40
2024/02/09 04:15:12;;;;;;;45.52;23.25;;;;;;;0.16;95.32;98838.67;1757730;81;25632;-41
2024/02/09 04:17:40;;;;;;;44.75;23.50;;;;;;;0.15;95.31;98836.55;1789177;80;25526;-40
2024/02/09 04:20:13;;;;;;;43.78;22.32;;;;;;;0.15;95.23;98849.04;1756153;80;27332;-38
2024/02/09 04:22:41;;;;;;;44.38;22.15;;;;;;;0.15;95.19;98852.52;1789295;80;25591;-39
2024/02/09 04:25:10;;;;;;;46.55;22.93;;;;;;;0.14;95.17;98860.22;1789365;80;25443;-39
2024/02/09 04:27:36;;;;;;;41.28;21.05;;;;;;;0.15;95.12;98843.72;1789845;80;25959;-38
2024/02/09 04:30:15;;;;;;;41.42;22.15;;;;;;;0.13;94.90;98837.34;1758096;81;25631;-39
2024/02/09 04:32:40;;;;;;;42.27;22.98;;;;;;;0.11;94.83;98840.03;1789168;80;27676;-39
2024/02/09 04:35:10;;;;;;;44.90;21.73;;;;;;;0.08;94.81;98837.38;1788848;80;25590;-39
2024/02/09 04:37:37;;;;;;;46.85;23.22;;;;;;;0.08;94.76;98839.25;1757725;81;25566;-39
2024/02/09 04:40:12;;;;;;;42.35;21.23;;;;;;;0.06;94.78;98836.86;1790124;80;26068;-39
2024/02/09 04:42:38;;;;;;;48.00;21.65;;;;;;;0.04;94.87;98832.36;1795155;79;25482;-39
2024/02/09 04:45:12;;;;;;;45.08;23.52;;;;;;;0.05;94.99;98826.50;1795067;79;27645;-39
2024/02/09 04:47:39;;;;;;;46.60;23.00;;;;;;;0.02;95.05;98817.73;1795054;79;25666;-40
2024/02/09 04:50:12;;;;;;;44.30;22.95;;;;;;;0.02;95.04;98811.09;1794812;80;25547;-39
2024/02/09 04:52:39;;;;;;;50.40;23.75;;;;;;;0.00;95.04;98795.44;1763449;81;25740;-40
2024/02/09 04:55:10;;;;;;;45.10;23.35;;;;;;;-0.01;94.94;98781.33;1763388;81;25529;-40
2024/02/09 04:57:38;;;;;;;46.13;23.83;;;;;;;-0.04;94.95;98780.55;1794875;79;27758;-40
2024/02/09 05:00:16;;;;;;;48.85;23.83;;;;;;;-0.05;95.13;98781.64;1794663;80;25695;-40
2024/02/09 05:02:45;;;;;;;45.85;23.87;;;;;;;-0.09;95.01;98784.57;1794845;80;25623;-39
2024/02/09 05:05:14;;;;;;;47.17;23.45;;;;;;;-0.10;95.04;98785.66;1794849;80;25702;-39
2024/02/09 05:07:40;;;;;;;48.73;25.10;;;;;;;-0.13;95.19;98792.06;1794896;80;25400;-39
2024/02/09 05:10:11;;;;;;;48.28;23.87;;;;;;;-0.16;95.37;98803.23;1794764;80;27683;-39
2024/02/09 05:12:37;;;;;;;47.75;23.22;;;;;;;-0.17;95.53;98806.95;1794743;80;25376;-40
2024/02/09 05:15:09;;;;;;;44.27;22.20;;;;;;;-0.19;95.57;98801.91;1794801;80;25603;-40
2024/02/09 05:17:38;;;;;;;41.05;22.87;;;;;;;-0.20;95.69;98807.77;1794804;80;25614;-39
2024/02/09 05:20:16;;;;;;;46.60;23.35;;;;;;;-0.21;95.89;98802.72;1766062;80;25590;-40
2024/02/09 05:22:46;;;;;;;49.10;23.50;;;;;;;-0.23;96.04;98810.17;1794800;80;27705;-40
2024/02/09 05:25:13;;;;;;;48.83;22.48;;;;;;;-0.23;96.04;98816.81;1792724;80;25517;-39
2024/02/09 05:27:48;;;;;;;46.77;21.65;;;;;;;-0.24;96.08;98810.72;1794942;80;33234;-40
2024/02/09 05:30:21;;;;;;;48.05;22.73;;;;;;;-0.23;96.12;98806.98;1790507;80;26320;-41
2024/02/09 05:32:47;;;;;;;50.17;22.80;;;;;;;-0.22;96.22;98803.27;1794747;80;25585;-39
2024/02/09 05:35:15;;;;;;;48.58;23.05;;;;;;;-0.23;96.25;98807.52;1794793;80;27310;-39
2024/02/09 05:37:41;;;;;;;50.12;22.27;;;;;;;-0.24;96.27;98799.27;1794652;80;25427;-39
2024/02/09 05:40:09;;;;;;;47.33;22.20;;;;;;;-0.23;96.38;98798.22;1794174;80;25416;-40
2024/02/09 05:42:37;;;;;;;48.75;23.67;;;;;;;-0.23;96.45;98806.19;1788922;80;25612;-40
2024/02/09 05:45:06;;;;;;;44.70;22.55;;;;;;;-0.24;96.59;98810.72;1788908;80;25511;-39
2024/02/09 05:47:34;;;;;;;45.70;21.00;;;;;;;-0.22;96.69;98825.06;1788812;80;28219;-38
2024/02/09 05:50:07;;;;;;;43.48;21.23;;;;;;;-0.23;96.88;98820.27;1788816;80;25655;-40
2024/02/09 05:52:37;;;;;;;47.83;23.02;;;;;;;-0.24;96.92;98814.70;1788938;80;25560;-39
2024/02/09 05:55:10;;;;;;;43.48;22.35;;;;;;;-0.24;97.00;98817.36;1788878;80;26247;-40
2024/02/09 05:57:37;;;;;;;44.73;22.48;;;;;;;-0.23;97.28;98812.29;1788785;80;25432;-40
2024/02/09 06:00:15;;;;;;;48.25;22.73;;;;;;;-0.25;97.19;98802.47;1788883;80;28354;-40
2024/02/09 06:02:42;;;;;;;40.80;21.47;;;;;;;-0.25;97.33;98790.52;1789111;80;25466;-39
2024/02/09 06:05:17;;;;;;;46.45;21.60;;;;;;;-0.28;97.32;98784.41;1789049;80;25545;-39
2024/02/09 06:07:44;;;;;;;41.92;21.82;;;;;;;-0.30;97.51;98779.91;1788941;80;26292;-39
2024/02/09 06:10:14;;;;;;;43.25;20.75;;;;;;;-0.31;97.47;98788.94;1789111;80;25699;-39
2024/02/09 06:12:44;;;;;;;46.48;20.20;;;;;;;-0.31;97.48;98793.47;1788935;80;26832;-41
2024/02/09 06:15:13;;;;;;;46.75;21.97;;;;;;;-0.31;97.54;98798.23;1756739;79;25686;-40
2024/02/09 06:17:41;;;;;;;44.98;21.97;;;;;;;-0.31;97.61;98798.23;1700324;84;25696;-40
2024/02/09 06:20:12;;;;;;;49.93;21.55;;;;;;;-0.30;97.59;98789.76;1671418;85;25756;-39
2024/02/09 06:22:39;;;;;;;48.55;22.27;;;;;;;-0.30;97.76;98797.19;1695210;84;25618;-40
2024/02/09 06:25:08;;;;;;;54.27;23.20;;;;;;;-0.29;97.76;98807.27;1695284;84;27686;-40
2024/02/09 06:27:34;;;;;;;51.28;22.65;;;;;;;-0.28;97.85;98820.83;1695503;84;26034;-40
2024/02/09 06:30:01;;;;;;;51.05;22.10;;;;;;;-0.27;98.00;98822.44;1695256;84;25596;-40
2024/02/09 06:32:31;;;;;;;47.73;22.65;;;;;;;-0.26;98.16;98830.11;1695145;84;25947;-37
2024/02/09 06:34:58;;;;;;;51.88;22.45;;;;;;;-0.21;98.21;98829.30;1692767;84;25583;-39
2024/02/09 06:37:25;;;;;;;43.68;21.82;;;;;;;-0.18;98.30;98822.66;1695222;84;27897;-39
2024/02/09 06:39:51;;;;;;;40.00;20.10;;;;;;;-0.16;98.32;98817.31;1695145;84;25627;-39
2024/02/09 06:42:20;;;;;;;43.80;20.62;;;;;;;-0.15;98.32;98828.72;1695178;84;25571;-40
2024/02/09 06:44:48;;;;;;;41.83;20.27;;;;;;;-0.14;98.28;98829.78;1695237;84;25616;-40
2024/02/09 06:47:15;;;;;;;45.45;22.32;;;;;;;-0.12;98.30;98830.33;1695254;84;25763;-38
2024/02/09 06:49:47;;;;;;;41.37;19.45;;;;;;;-0.09;98.39;98834.28;1695267;84;27392;-39
2024/02/09 06:52:19;;;;;;;41.05;19.75;;;;;;;-0.05;98.61;98830.81;1695053;84;25595;-40
2024/02/09 06:54:45;;;;;;;43.73;20.10;;;;;;;-0.03;98.60;98822.57;1695232;83;25562;-37
2024/02/09 06:57:14;;;;;;;43.55;20.43;;;;;;;-0.01;98.80;98817.22;1695188;84;25985;-39
2024/02/09 06:59:46;;;;;;;46.23;20.82;;;;;;;0.05;98.80;98821.99;1695138;84;25596;-39
2024/02/09 07:02:12;;;;;;;44.65;20.95;;;;;;;0.08;98.65;98828.06;1695341;84;27847;-39
2024/02/09 07:04:40;;;;;;;42.73;20.90;;;;;;;0.09;98.56;98831.00;1695118;84;25460;-39
2024/02/09 07:07:08;;;;;;;42.80;21.17;;;;;;;0.11;98.61;98819.55;1695237;84;25454;-40
2024/02/09 07:09:36;;;;;;;44.58;22.42;;;;;;;0.13;98.43;98820.06;1695190;84;25974;-39
2024/02/09 07:12:08;;;;;;;43.50;20.57;;;;;;;0.15;98.51;98824.59;1695193;84;25534;-39
2024/02/09 07:14:34;;;;;;;43.83;20.80;;;;;;;0.18;98.62;98829.88;1695250;84;27340;-40
2024/02/09 07:17:00;;;;;;;45.95;21.55;;;;;;;0.22;98.82;98829.58;1695218;84;25568;-41
2024/02/09 07:19:29;;;;;;;48.00;22.75;;;;;;;0.28;98.91;98825.03;1695203;84;25562;-41
2024/02/09 07:21:55;;;;;;;45.40;21.57;;;;;;;0.32;98.98;98810.91;1695157;83;25695;-41
2024/02/09 07:24:21;;;;;;;40.43;20.05;;;;;;;0.38;98.94;98818.31;1695323;84;25394;-40
2024/02/09 07:26:47;;;;;;;39.55;18.05;;;;;;;0.42;98.87;98811.35;1695326;84;27671;-40
2024/02/09 07:29:14;;;;;;;35.15;17.48;;;;;;;0.48;98.88;98814.79;1695263;84;25544;-39
2024/02/09 07:31:40;;;;;;;38.10;18.23;;;;;;;0.52;98.74;98803.29;1695319;83;25403;-39
2024/02/09 07:34:10;;;;;;;33.58;16.95;;;;;;;0.53;98.34;98799.56;1695297;84;26178;-39
2024/02/09 07:36:34;;;;;;;38.92;17.67;;;;;;;0.57;98.04;98802.46;1692280;84;25698;-40
2024/02/09 07:39:07;;;;;;;30.92;16.80;;;;;;;0.61;98.37;98792.05;1695267;84;26174;-42
2024/02/09 07:41:35;;;;;;;31.15;15.53;;;;;;;0.64;98.18;98796.27;1695196;84;25612;-38
2024/02/09 07:44:03;;;;;;;32.78;16.30;;;;;;;0.68;98.10;98790.67;1695392;84;25557;-39
2024/02/09 07:46:33;;;;;;;35.80;15.93;;;;;;;0.69;97.62;98788.25;1695321;84;25602;-42
2024/02/09 07:48:59;;;;;;;29.75;14.43;;;;;;;0.71;97.52;98781.31;1669618;84;25582;-39
2024/02/09 07:51:25;;;;;;;29.00;15.40;;;;;;;0.70;97.32;98781.08;1695270;84;27320;-41
2024/02/09 07:53:54;;;;;;;34.67;17.70;;;;;;;0.73;97.38;98773.84;1695242;84;25450;-41
2024/02/09 07:56:23;;;;;;;28.80;15.70;;;;;;;0.80;97.87;98780.98;1695381;84;25425;-40
2024/02/09 07:58:52;;;;;;;29.37;16.23;;;;;;;0.87;97.78;98779.29;1695268;84;25968;-40
2024/02/09 08:01:22;;;;;;;30.85;16.23;;;;;;;0.87;97.17;98780.62;1695312;84;25598;-40
2024/02/09 08:03:53;;;;;;;32.50;16.87;;;;;;;0.89;97.09;98777.95;1695279;84;27395;-40
2024/02/09 08:06:22;;;;;;;30.80;15.98;;;;;;;0.96;97.48;98786.15;1695189;84;25551;-40
2024/02/09 08:08:52;;;;;;;51.75;29.82;;;;;;;0.97;97.04;98785.88;1695298;84;25459;-39
2024/02/09 08:11:26;;;;;;;107.30;59.13;;;;;;;1.01;96.71;98783.44;1693522;84;25939;-41
2024/02/09 08:13:53;;;;;;;29.72;16.00;;;;;;;1.02;96.53;98779.68;1695356;84;25644;-39
2024/02/09 08:16:23;;;;;;;30.72;15.85;;;;;;;1.10;97.05;98779.84;1695181;84;27328;-39
2024/02/09 08:18:53;;;;;;;30.43;15.43;;;;;;;1.19;97.62;98776.56;1695192;84;26091;-39
2024/02/09 08:21:25;;;;;;;26.57;13.48;;;;;;;1.32;97.98;98769.77;1695290;84;25612;-39
2024/02/09 08:23:48;;;;;;;26.45;13.03;;;;;;;1.41;97.19;98769.39;1694189;84;25992;-39
2024/02/09 08:26:14;;;;;;;23.90;12.60;;;;;;;1.45;96.62;98778.41;1695308;84;25782;-39
2024/02/09 08:28:43;;;;;;;22.93;12.35;;;;;;;1.54;96.73;98779.35;1695245;84;28205;-39
2024/02/09 08:31:15;;;;;;;23.85;11.25;;;;;;;1.59;96.36;98785.16;1692568;84;25567;-39
2024/02/09 08:33:47;;;;;;;21.90;11.00;;;;;;;1.63;96.00;98783.50;1695410;84;25629;-40
2024/02/09 08:36:23;;;;;;;18.37;10.72;;;;;;;1.66;95.00;98781.60;1695317;84;25608;-39
2024/02/09 08:38:46;;;;;;;21.65;11.60;;;;;;;1.61;93.92;98770.45;1692985;84;25542;-39
2024/02/09 08:41:19;;;;;;;21.30;11.22;;;;;;;1.62;94.41;98757.95;1695308;84;28001;-39
2024/02/09 08:43:49;;;;;;;21.50;9.95;;;;;;;1.66;94.65;98764.28;1695499;84;25576;-40
2024/02/09 08:46:24;;;;;;;21.65;10.80;;;;;;;1.65;94.04;98774.67;1695394;84;25486;-39
2024/02/09 08:48:50;;;;;;;20.08;10.15;;;;;;;1.70;94.25;98776.48;1695286;84;26288;-39
2024/02/09 08:51:17;;;;;;;21.12;9.65;;;;;;;1.67;93.42;98778.66;1695219;84;25639;-39
2024/02/09 08:53:43;;;;;;;20.17;9.70;;;;;;;1.73;93.92;98770.59;1695301;84;27669;-39
2024/02/09 08:56:09;;;;;;;36.33;19.98;;;;;;;1.77;93.63;98776.40;1695135;84;25391;-41
2024/02/09 08:58:38;;;;;;;18.02;9.65;;;;;;;1.79;92.77;98778.78;1695301;84;25334;-40
2024/02/09 09:01:06;;;;;;;11.68;7.00;;;;;;;1.82;92.75;98779.52;1695236;84;25569;-40
2024/02/09 09:03:37;;;;;;;14.95;6.10;;;;;;;1.81;92.28;98775.28;1695344;84;25478;-40
2024/02/09 09:06:08;;;;;;;11.73;5.70;;;;;;;1.83;92.37;98767.23;1695291;84;28000;-40
2024/02/09 09:08:34;;;;;;;10.72;5.53;;;;;;;1.92;92.65;98762.59;1695090;84;25602;-40
2024/02/09 09:11:05;;;;;;;13.48;5.72;;;;;;;1.98;91.84;98754.78;1695209;84;25584;-39
2024/02/09 09:13:37;;;;;;;13.03;5.75;;;;;;;2.02;90.76;98757.89;1695237;84;25610;-40
2024/02/09 09:16:11;;;;;;;12.25;5.55;;;;;;;2.02;90.71;98748.55;1699491;84;25630;-41
2024/02/09 09:18:41;;;;;;;10.53;5.30;;;;;;;2.01;89.33;98733.66;1706666;84;28917;-39
2024/02/09 09:21:07;;;;;;;7.90;4.40;;;;;;;1.98;89.39;98742.78;1706655;84;25391;-39
2024/02/09 09:23:33;;;;;;;10.40;4.67;;;;;;;1.93;89.09;98743.64;1720249;83;25467;-40
2024/02/09 09:26:00;;;;;;;9.68;5.37;;;;;;;1.92;89.37;98744.70;1703853;84;26615;-39
2024/02/09 09:28:26;;;;;;;10.88;5.53;;;;;;;1.92;88.94;98742.04;1703818;84;25627;-40
2024/02/09 09:30:52;;;;;;;10.60;6.40;;;;;;;1.92;89.04;98751.37;1703786;83;27215;-40
2024/02/09 09:33:18;;;;;;;10.45;6.05;;;;;;;1.93;89.11;98749.52;1703645;84;25464;-41
2024/02/09 09:35:46;;;;;;;10.53;6.70;;;;;;;1.94;89.63;98755.09;1703711;83;25782;-41
2024/02/09 09:38:13;;;;;;;9.68;5.65;;;;;;;1.97;89.55;98749.18;1703635;84;26630;-41
2024/02/09 09:40:43;;;;;;;10.25;5.50;;;;;;;2.01;89.72;98747.51;1703812;84;25391;-41
2024/02/09 09:43:09;;;;;;;10.30;5.42;;;;;;;2.06;89.61;98754.12;1703659;83;28365;-40
2024/02/09 09:45:37;;;;;;;8.98;5.30;;;;;;;2.08;89.19;98752.48;1703701;84;25543;-40
2024/02/09 09:48:15;;;;;;;9.43;5.15;;;;;;;2.08;87.98;98756.48;1703763;84;25462;-41
2024/02/09 09:50:44;;;;;;;7.65;5.08;;;;;;;2.05;87.84;98740.53;1703561;83;25615;-42
2024/02/09 09:53:18;;;;;;;50.38;30.17;;;;;;;2.09;87.96;98738.86;1703809;84;25596;-43
2024/02/09 09:55:47;;;;;;;11.22;6.05;;;;;;;2.15;88.13;98737.70;1703827;83;28021;-39
2024/02/09 09:58:17;;;;;;;9.53;5.35;;;;;;;2.22;88.88;98736.00;1703875;83;33564;-40
2024/02/09 10:00:49;;;;;;;9.08;5.00;;;;;;;2.29;88.29;98728.95;1703958;83;25571;-41
2024/02/09 10:03:19;;;;;;;7.40;4.65;;;;;;;2.36;87.29;98732.82;1703834;84;27125;-41
2024/02/09 10:05:45;;;;;;;7.75;5.20;;;;;;;2.35;87.25;98723.25;1678887;84;25637;-41
2024/02/09 10:08:15;;;;;;;5.70;3.47;;;;;;;2.37;86.93;98732.30;1703858;84;27932;-41
2024/02/09 10:10:43;;;;;;;7.92;5.08;;;;;;;2.36;86.94;98733.37;1703602;84;25587;-40
2024/02/09 10:13:13;;;;;;;8.30;4.50;;;;;;;2.31;85.34;98721.45;1703724;84;25636;-42
2024/02/09 10:15:46;;;;;;;7.92;4.22;;;;;;;2.23;85.46;98721.56;1703570;84;26017;-41
2024/02/09 10:18:14;;;;;;;7.83;5.22;;;;;;;2.22;85.87;98719.99;1702723;84;25683;-41
2024/02/09 10:20:41;;;;;;;9.28;5.10;;;;;;;2.16;85.41;98725.15;1703715;84;27693;-41
2024/02/09 10:23:07;;;;;;;8.93;5.03;;;;;;;2.12;85.74;98722.83;1703612;83;25620;-41
2024/02/09 10:25:38;;;;;;;8.03;5.20;;;;;;;2.12;86.22;98732.16;1703762;83;25413;-41
2024/02/09 10:28:09;;;;;;;8.08;4.87;;;;;;;2.07;85.95;98724.23;1703725;84;26203;-43
2024/02/09 10:30:35;;;;;;;8.33;4.75;;;;;;;2.04;86.31;98715.74;1703703;84;25606;-39
2024/02/09 10:33:10;;;;;;;9.73;5.67;;;;;;;2.01;86.60;98725.66;1703748;84;27334;-39
2024/02/09 10:35:37;;;;;;;10.70;5.53;;;;;;;2.00;86.49;98721.39;1702342;84;25438;-39
2024/02/09 10:38:05;;;;;;;8.90;5.72;;;;;;;1.93;85.96;98721.52;1703715;83;25455;-38
2024/02/09 10:40:34;;;;;;;8.80;5.33;;;;;;;1.89;86.64;98716.50;1703782;84;25954;-39
2024/02/09 10:43:04;;;;;;;9.43;5.28;;;;;;;1.89;86.76;98723.97;1703671;84;25539;-38
2024/02/09 10:45:36;;;;;;;6.80;4.45;;;;;;;1.78;86.73;98730.53;1703798;84;28422;-39
2024/02/09 10:48:12;;;;;;;7.37;4.53;;;;;;;1.73;86.41;98723.94;1703682;83;25635;-38
2024/02/09 10:50:39;;;;;;;7.28;4.85;;;;;;;1.66;86.52;98720.30;1702680;84;25381;-40
2024/02/09 10:53:12;;;;;;;7.22;4.22;;;;;;;1.61;86.88;98716.37;1703682;83;26306;-40
2024/02/09 10:55:43;;;;;;;10.40;4.87;;;;;;;1.59;87.28;98703.33;1702275;84;25407;-40
2024/02/09 10:58:13;;;;;;;7.47;4.90;;;;;;;1.58;87.61;98708.39;1703884;83;27710;-39
2024/02/09 11:00:44;;;;;;;8.00;4.97;;;;;;;1.61;88.16;98703.83;1703935;83;26670;-39
2024/02/09 11:03:12;;;;;;;7.45;4.10;;;;;;;1.63;88.18;98708.32;1704142;84;25373;-38
2024/02/09 11:05:40;;;;;;;61.00;37.60;;;;;;;1.63;87.86;98700.88;1703780;84;25676;-40
2024/02/09 11:08:10;;;;;;;13.32;9.25;;;;;;;1.65;88.26;98701.38;1704053;84;25445;-40
2024/02/09 11:10:36;;;;;;;8.13;4.53;;;;;;;1.63;87.56;98698.99;1703888;84;27818;-41
2024/02/09 11:13:05;;;;;;;5.58;3.72;;;;;;;1.64;88.00;98695.26;1703779;84;25493;-41
2024/02/09 11:15:33;;;;;;;5.62;4.22;;;;;;;1.62;87.57;98693.98;1703917;84;25470;-39
2024/02/09 11:18:01;;;;;;;6.85;4.05;;;;;;;1.62;87.76;98701.97;1696089;83;26214;-40
2024/02/09 11:20:32;;;;;;;6.40;4.85;;;;;;;1.59;87.71;98690.00;1695141;84;25679;-41
2024/02/09 11:23:00;;;;;;;5.78;4.10;;;;;;;1.58;87.68;98687.63;1692099;84;27311;-41
2024/02/09 11:25:34;;;;;;;6.85;4.35;;;;;;;1.56;88.07;98683.91;1695158;84;25569;-40
2024/02/09 11:28:10;;;;;;;6.12;3.70;;;;;;;1.51;87.99;98688.53;1694991;84;25603;-41
2024/02/09 11:30:38;;;;;;;6.58;4.12;;;;;;;1.41;88.05;98678.80;1695013;84;25526;-41
2024/02/09 11:33:08;;;;;;;5.62;3.67;;;;;;;1.39;88.59;98687.63;1695071;84;25683;-40
2024/02/09 11:35:35;;;;;;;6.58;4.08;;;;;;;1.35;88.80;98681.30;1695037;84;27703;-38
2024/02/09 11:38:05;;;;;;;6.58;4.40;;;;;;;1.33;89.19;98682.91;1694972;84;25616;-40
2024/02/09 11:40:34;;;;;;;7.78;4.47;;;;;;;1.27;89.34;98672.05;1695183;84;25580;-39
2024/02/09 11:43:03;;;;;;;6.10;4.42;;;;;;;1.23;89.60;98670.51;1694945;84;25618;-39
2024/02/09 11:45:33;;;;;;;7.67;4.30;;;;;;;1.25;90.11;98670.23;1669256;84;25648;-41
2024/02/09 11:48:08;;;;;;;8.68;5.30;;;;;;;1.26;90.55;98664.61;1694989;84;26971;-40
2024/02/09 11:50:40;;;;;;;8.00;5.33;;;;;;;1.27;90.67;98661.41;1694946;84;25701;-40
2024/02/09 11:53:08;;;;;;;8.35;5.90;;;;;;;1.26;90.80;98651.81;1694949;84;25256;-40
2024/02/09 11:55:46;;;;;;;10.45;6.05;;;;;;;1.24;90.94;98651.31;1695081;84;25627;-40
2024/02/09 11:58:16;;;;;;;11.43;6.50;;;;;;;1.22;91.35;98644.16;1694987;84;25557;-40
2024/02/09 12:00:50;;;;;;;11.55;6.70;;;;;;;1.16;91.38;98637.30;1694987;84;27240;-40
2024/02/09 12:03:15;;;;;;;14.30;7.33;;;;;;;1.14;91.56;98639.47;1692718;84;25631;-39
2024/02/09 12:05:50;;;;;;;9.63;6.25;;;;;;;1.12;91.89;98638.42;1694905;84;25730;-42
2024/02/09 12:08:20;;;;;;;13.58;7.60;;;;;;;1.10;92.24;98645.91;1692486;84;25846;-38
2024/02/09 12:10:46;;;;;;;47.03;27.17;;;;;;;1.07;92.39;98637.16;1695170;84;25540;-40
2024/02/09 12:13:15;;;;;;;17.90;10.20;;;;;;;1.10;93.11;98640.03;1694950;84;28469;-41
2024/02/09 12:15:41;;;;;;;14.50;8.43;;;;;;;1.12;93.38;98635.75;1694885;84;25586;-42
2024/02/09 12:18:08;;;;;;;15.55;8.63;;;;;;;1.13;93.99;98632.02;1701802;84;25617;-41
2024/02/09 12:20:36;;;;;;;18.30;8.85;;;;;;;1.13;93.56;98634.69;1681174;84;25666;-40
2024/02/09 12:23:07;;;;;;;15.55;8.98;;;;;;;1.13;93.57;98632.58;1703754;84;25613;-40
2024/02/09 12:25:38;;;;;;;14.85;9.35;;;;;;;1.10;93.49;98629.93;1703813;83;27876;-41
2024/02/09 12:28:10;;;;;;;19.17;10.20;;;;;;;1.09;93.82;98617.16;1703785;84;25673;-40
2024/02/09 12:30:42;;;;;;;18.32;10.68;;;;;;;1.05;93.62;98619.34;1703905;84;25532;-41
2024/02/09 12:33:11;;;;;;;17.42;9.90;;;;;;;1.04;93.71;98618.56;1703794;84;25630;-40
2024/02/09 12:35:41;;;;;;;20.45;11.50;;;;;;;1.02;93.80;98627.91;1703846;84;25563;-40
2024/02/09 12:38:17;;;;;;;19.00;11.33;;;;;;;0.99;94.00;98626.62;1703857;84;27387;-42
2024/02/09 12:40:49;;;;;;;17.23;10.53;;;;;;;0.98;94.23;98615.70;1703723;84;25437;-40
2024/02/09 12:43:19;;;;;;;21.33;11.05;;;;;;;0.98;94.43;98621.58;1703744;83;25599;-41
2024/02/09 12:45:49;;;;;;;18.62;11.38;;;;;;;0.96;94.59;98614.42;1703763;83;25652;-39
2024/02/09 12:48:21;;;;;;;18.98;12.10;;;;;;;0.95;94.70;98616.81;1703857;84;25405;-39
2024/02/09 12:50:56;;;;;;;18.23;11.57;;;;;;;0.89;94.69;98602.23;1702877;84;27275;-39
2024/02/09 12:53:20;;;;;;;21.82;13.00;;;;;;;0.86;94.88;98603.35;1703649;84;25664;-43
2024/02/09 12:55:46;;;;;;;18.12;11.93;;;;;;;0.84;94.99;98595.66;1703816;84;25647;-40
2024/02/09 12:58:14;;;;;;;20.65;10.48;;;;;;;0.84;95.26;98598.31;1703826;83;25950;-39
2024/02/09 13:00:41;;;;;;;21.45;12.95;;;;;;;0.85;95.33;98609.74;1703866;83;25627;-39
2024/02/09 13:03:10;;;;;;;18.23;12.45;;;;;;;0.82;95.50;98607.13;1703701;83;26700;-39
2024/02/09 13:05:39;;;;;;;16.75;10.70;;;;;;;0.82;95.44;98610.31;1703686;84;25623;-39
2024/02/09 13:08:11;;;;;;;19.42;11.03;;;;;;;0.79;95.55;98611.69;1703646;83;25643;-41
2024/02/09 13:10:38;;;;;;;18.92;10.43;;;;;;;0.83;95.73;98613.23;1703717;84;25952;-41
2024/02/09 13:13:07;;;;;;;16.77;10.48;;;;;;;0.82;95.77;98609.80;1703820;83;25639;-41
2024/02/09 13:15:38;;;;;;;13.98;8.98;;;;;;;0.82;95.85;98608.46;1703856;84;27337;-40
2024/02/09 13:18:10;;;;;;;18.60;11.18;;;;;;;0.82;95.89;98608.46;1698258;84;25425;-42
2024/02/09 13:20:42;;;;;;;18.48;11.18;;;;;;;0.80;95.86;98605.30;1695065;84;25402;-39
2024/02/09 13:23:11;;;;;;;28.32;16.52;;;;;;;0.79;95.87;98605.58;1694998;84;26733;-41
2024/02/09 13:25:40;;;;;;;24.35;14.78;;;;;;;0.81;96.58;98594.10;1695077;84;25756;-40